Time;durP1;ratioP1;P1;durP2;ratioP2;P2;SDS_P1;SDS_P2;PMS_P1;PMS_P2;Temp;Humidity;BMP_temperature;BMP_pressure;BME280_temperature;BME280_humidity;BME280_pressure;Samples;Min_cycle;Max_cycle;Signal;HPM_P1;HPM_P2
2023/05/19 00:00:56;;;;;;;5.77;4.20;;;12.40;99.90;;;;;;5057795;28;20211;-77
2023/05/19 00:03:25;;;;;;;5.57;4.77;;;12.40;99.90;;;;;;5051478;28;20190;-77
2023/05/19 00:05:54;;;;;;;4.87;4.43;;;12.30;99.90;;;;;;5055677;28;20661;-77
2023/05/19 00:08:24;;;;;;;5.40;4.90;;;12.30;99.90;;;;;;5056989;28;20236;-76
2023/05/19 00:10:51;;;;;;;6.10;4.57;;;12.30;99.90;;;;;;5057618;28;20199;-77
2023/05/19 00:13:19;;;;;;;7.37;4.03;;;12.20;99.90;;;;;;5055655;28;20207;-77
2023/05/19 00:15:46;;;;;;;6.87;5.60;;;12.20;99.90;;;;;;5051839;28;20222;-75
2023/05/19 00:18:15;;;;;;;4.90;4.00;;;12.20;99.90;;;;;;5053078;28;20202;-77
2023/05/19 00:20:43;;;;;;;7.73;7.00;;;12.20;99.90;;;;;;5051697;28;20255;-75
2023/05/19 00:23:10;;;;;;;6.63;4.40;;;12.20;99.90;;;;;;5057758;28;20220;-77
2023/05/19 00:25:37;;;;;;;6.30;4.80;;;12.10;99.90;;;;;;5054937;28;20210;-77
2023/05/19 00:28:04;;;;;;;6.67;4.20;;;12.10;99.90;;;;;;5054765;28;20249;-77
2023/05/19 00:30:31;;;;;;;6.33;5.00;;;12.10;99.90;;;;;;5055831;28;20216;-77
2023/05/19 00:32:58;;;;;;;7.87;5.37;;;12.10;99.90;;;;;;5057615;28;20246;-77
2023/05/19 00:35:25;;;;;;;8.80;5.23;;;12.10;99.90;;;;;;5050965;28;20203;-76
2023/05/19 00:37:54;;;;;;;7.53;4.90;;;12.10;99.90;;;;;;5058006;28;20212;-77
2023/05/19 00:40:22;;;;;;;10.73;6.23;;;12.10;99.90;;;;;;5054466;28;20318;-77
2023/05/19 00:42:49;;;;;;;6.33;5.07;;;12.10;99.90;;;;;;5046216;28;20238;-77
2023/05/19 00:45:15;;;;;;;6.10;5.10;;;12.10;99.90;;;;;;5054328;28;20219;-76
2023/05/19 00:47:42;;;;;;;5.70;4.57;;;12.10;99.90;;;;;;5057318;28;20203;-76
2023/05/19 00:50:10;;;;;;;5.70;5.10;;;12.10;99.90;;;;;;5052389;28;20286;-77
2023/05/19 00:52:37;;;;;;;6.47;4.60;;;12.10;99.90;;;;;;5057960;28;20230;-77
2023/05/19 00:55:06;;;;;;;7.90;5.07;;;12.00;99.90;;;;;;5051015;28;20221;-77
2023/05/19 00:57:33;;;;;;;5.83;4.67;;;12.00;99.90;;;;;;5051289;28;20198;-77
2023/05/19 01:00:01;;;;;;;5.73;5.13;;;12.00;99.90;;;;;;5058015;28;20238;-76
2023/05/19 01:02:28;;;;;;;5.97;5.23;;;11.90;99.90;;;;;;5055208;28;20211;-77
2023/05/19 01:04:56;;;;;;;8.10;5.60;;;11.90;99.90;;;;;;5055984;28;20222;-77
2023/05/19 01:07:24;;;;;;;8.20;5.63;;;11.90;99.90;;;;;;5054599;28;20219;-76
2023/05/19 01:09:51;;;;;;;7.63;7.03;;;12.00;99.90;;;;;;5057790;28;20203;-77
2023/05/19 01:12:19;;;;;;;5.70;3.80;;;12.00;99.90;;;;;;5051721;28;20193;-77
2023/05/19 01:14:46;;;;;;;6.90;6.30;;;12.00;99.90;;;;;;5050922;28;20607;-77
2023/05/19 01:17:25;;;;;;;7.53;4.20;;;11.90;99.90;;;;;;5057632;28;20206;-77
2023/05/19 01:20:05;;;;;;;6.80;5.17;;;11.90;99.90;;;;;;5058266;28;20271;-77
2023/05/19 01:22:58;;;;;;;8.20;7.30;;;11.90;99.90;;;;;;5053678;28;20210;-77
2023/05/19 01:26:00;;;;;;;5.47;4.87;;;11.80;99.90;;;;;;5052791;28;20226;-77
2023/05/19 01:29:24;;;;;;;7.20;5.10;;;11.90;99.90;;;;;;5051983;28;20209;-77
2023/05/19 01:31:55;;;;;;;6.87;4.87;;;11.90;99.90;;;;;;5001937;28;20280;-77
2023/05/19 01:34:26;;;;;;;10.17;5.60;;;11.90;99.90;;;;;;5005928;28;20234;-77
2023/05/19 01:36:54;;;;;;;5.23;4.73;;;11.90;99.90;;;;;;5037418;28;20214;-77
2023/05/19 01:39:22;;;;;;;6.27;4.37;;;12.00;99.90;;;;;;5057104;28;20209;-76
2023/05/19 01:41:50;;;;;;;5.70;4.50;;;12.00;99.90;;;;;;5060288;28;20204;-77
2023/05/19 01:44:18;;;;;;;5.40;4.37;;;11.90;99.90;;;;;;5058489;28;20295;-77
2023/05/19 01:46:45;;;;;;;4.77;4.30;;;12.00;99.90;;;;;;5064724;28;20229;-77
2023/05/19 01:49:14;;;;;;;4.70;4.30;;;11.90;99.90;;;;;;5059976;28;20677;-77
2023/05/19 01:51:41;;;;;;;4.57;4.13;;;12.00;99.90;;;;;;5061765;28;20631;-77
2023/05/19 01:54:07;;;;;;;5.00;4.50;;;11.90;99.90;;;;;;5059082;28;20215;-76
2023/05/19 01:56:44;;;;;;;4.87;4.40;;;12.00;99.90;;;;;;5058811;28;20249;-77
2023/05/19 01:59:33;;;;;;;5.90;4.27;;;11.90;99.90;;;;;;5061192;28;20199;-77
2023/05/19 02:02:02;;;;;;;6.20;4.10;;;12.00;99.90;;;;;;5054692;28;20209;-76
2023/05/19 02:04:38;;;;;;;4.57;4.13;;;12.00;99.90;;;;;;5060501;28;20248;-77
2023/05/19 02:07:17;;;;;;;5.27;4.10;;;11.90;99.90;;;;;;5058055;28;20273;-76
2023/05/19 02:09:58;;;;;;;5.40;4.30;;;11.90;99.90;;;;;;5057150;28;20208;-77
2023/05/19 02:12:32;;;;;;;4.70;4.03;;;11.90;99.90;;;;;;5060008;28;20265;-77
2023/05/19 02:15:05;;;;;;;5.90;4.20;;;11.90;99.90;;;;;;5063636;28;20217;-77
2023/05/19 02:17:36;;;;;;;4.30;3.90;;;11.90;99.90;;;;;;5063560;28;20201;-75
2023/05/19 02:20:05;;;;;;;5.47;4.70;;;11.90;99.90;;;;;;5064484;28;20200;-76
2023/05/19 02:22:32;;;;;;;5.90;5.33;;;11.80;99.90;;;;;;5056005;28;20202;-77
2023/05/19 02:24:59;;;;;;;6.67;5.10;;;11.80;99.90;;;;;;5059519;28;20244;-77
2023/05/19 02:27:26;;;;;;;5.80;5.30;;;11.80;99.90;;;;;;5055985;28;20221;-77
2023/05/19 02:29:53;;;;;;;6.00;5.17;;;11.80;99.90;;;;;;5062763;28;20210;-77
2023/05/19 02:32:20;;;;;;;9.40;6.97;;;11.80;99.90;;;;;;5060522;28;20228;-76
2023/05/19 02:34:47;;;;;;;13.70;12.70;;;11.80;99.90;;;;;;5058952;28;20217;-77
2023/05/19 02:37:16;;;;;;;9.00;8.20;;;11.80;99.90;;;;;;5056174;28;20201;-76
2023/05/19 02:39:44;;;;;;;11.53;10.53;;;11.80;99.90;;;;;;5063199;28;20259;-77
2023/05/19 02:42:11;;;;;;;6.87;6.23;;;11.80;99.90;;;;;;5062416;28;20201;-78
2023/05/19 02:44:37;;;;;;;6.20;5.60;;;11.80;99.90;;;;;;5060517;28;20287;-77
2023/05/19 02:47:04;;;;;;;6.80;5.60;;;11.70;99.90;;;;;;5060378;28;20216;-77
2023/05/19 02:49:34;;;;;;;6.63;5.37;;;11.70;99.90;;;;;;5057289;28;20201;-78
2023/05/19 02:52:01;;;;;;;6.93;5.10;;;11.70;99.90;;;;;;5058353;28;20209;-78
2023/05/19 02:54:30;;;;;;;5.77;4.47;;;11.70;99.90;;;;;;5055592;28;20239;-78
2023/05/19 02:56:57;;;;;;;6.47;5.87;;;11.70;99.90;;;;;;5073383;28;20198;-78
2023/05/19 02:59:24;;;;;;;8.47;7.80;;;11.70;99.90;;;;;;5067880;28;20189;-78
2023/05/19 03:01:53;;;;;;;5.90;5.30;;;11.70;99.90;;;;;;5063299;28;20262;-78
2023/05/19 03:04:19;;;;;;;5.63;4.87;;;11.60;99.90;;;;;;5067808;28;20221;-78
2023/05/19 03:06:46;;;;;;;6.00;4.60;;;11.60;99.90;;;;;;5067270;28;20683;-78
2023/05/19 03:09:14;;;;;;;5.60;5.10;;;11.60;99.90;;;;;;5065475;28;20243;-78
2023/05/19 03:11:42;;;;;;;7.00;5.97;;;11.60;99.90;;;;;;5069351;28;20246;-78
2023/05/19 03:14:09;;;;;;;6.73;5.00;;;11.50;99.90;;;;;;5049186;28;20214;-78
2023/05/19 03:16:36;;;;;;;6.03;4.47;;;11.50;99.90;;;;;;5054265;28;20224;-78
2023/05/19 03:19:02;;;;;;;6.30;4.73;;;11.50;99.90;;;;;;5076235;28;20208;-78
2023/05/19 03:21:30;;;;;;;5.97;5.30;;;11.50;99.90;;;;;;5047092;28;20197;-79
2023/05/19 03:23:57;;;;;;;6.17;5.63;;;11.50;99.90;;;;;;5048681;28;20607;-79
2023/05/19 03:26:25;;;;;;;5.43;4.60;;;11.50;99.90;;;;;;5046268;28;20210;-82
2023/05/19 03:28:53;;;;;;;4.87;4.10;;;11.40;99.90;;;;;;5062730;28;20199;-80
2023/05/19 03:31:19;;;;;;;7.40;6.70;;;11.40;99.90;;;;;;5051319;28;20200;-78
2023/05/19 03:33:46;;;;;;;7.43;6.03;;;11.40;99.90;;;;;;5053811;28;20205;-80
2023/05/19 03:36:13;;;;;;;7.83;7.13;;;11.40;99.90;;;;;;5049031;28;20205;-80
2023/05/19 03:38:40;;;;;;;5.60;5.07;;;11.40;99.90;;;;;;5052148;28;20217;-81
2023/05/19 03:41:07;;;;;;;4.83;3.63;;;11.40;99.90;;;;;;5054790;28;20197;-81
2023/05/19 03:43:34;;;;;;;5.67;4.53;;;11.30;99.90;;;;;;5047899;28;20209;-78
2023/05/19 03:46:06;;;;;;;6.33;4.40;;;11.30;99.90;;;;;;5045842;28;20222;-80
2023/05/19 03:48:47;;;;;;;4.60;4.10;;;11.30;99.90;;;;;;5043941;28;20205;-80
2023/05/19 03:51:33;;;;;;;7.63;4.70;;;11.30;99.90;;;;;;5054199;28;20281;-79
2023/05/19 03:54:08;;;;;;;8.80;4.17;;;11.30;99.90;;;;;;5057007;28;20268;-82
2023/05/19 03:56:38;;;;;;;5.67;3.60;;;11.30;99.90;;;;;;5061743;28;20710;-79
2023/05/19 03:59:09;;;;;;;6.73;4.30;;;11.20;99.90;;;;;;5049706;28;20200;-81
2023/05/19 04:01:37;;;;;;;5.57;4.50;;;11.20;99.90;;;;;;5048349;28;20205;-79
2023/05/19 04:04:07;;;;;;;5.23;4.10;;;11.20;99.90;;;;;;5051261;28;20222;-79
2023/05/19 04:06:35;;;;;;;5.17;4.70;;;11.20;99.90;;;;;;5051481;28;20245;-80
2023/05/19 04:09:03;;;;;;;5.10;4.60;;;11.20;99.90;;;;;;5054010;28;20205;-81
2023/05/19 04:11:30;;;;;;;6.87;6.27;;;11.20;99.90;;;;;;5054857;28;20204;-79
2023/05/19 04:13:57;;;;;;;9.40;6.13;;;11.20;99.90;;;;;;5052033;28;20255;-79
2023/05/19 04:16:24;;;;;;;7.53;3.87;;;11.20;99.90;;;;;;5053079;28;20207;-79
2023/05/19 04:18:53;;;;;;;5.60;3.80;;;11.20;99.90;;;;;;5047770;28;20739;-79
2023/05/19 04:21:21;;;;;;;5.53;4.00;;;11.20;99.90;;;;;;5048164;28;20629;-79
2023/05/19 04:23:48;;;;;;;4.00;3.30;;;11.20;99.90;;;;;;5048024;28;20207;-77
2023/05/19 04:26:15;;;;;;;4.60;3.83;;;11.30;99.90;;;;;;5047577;28;20726;-77
2023/05/19 04:28:43;;;;;;;6.60;4.30;;;11.30;99.90;;;;;;5044645;28;20304;-78
2023/05/19 04:31:11;;;;;;;5.43;4.10;;;11.30;99.90;;;;;;5043334;28;20258;-78
2023/05/19 04:33:38;;;;;;;4.13;3.43;;;11.40;99.90;;;;;;5047974;28;20292;-77
2023/05/19 04:36:09;;;;;;;10.80;9.90;;;11.40;99.90;;;;;;5048304;28;20222;-77
2023/05/19 04:38:38;;;;;;;5.57;4.13;;;11.40;99.90;;;;;;5048811;28;20278;-76
2023/05/19 04:41:09;;;;;;;6.83;5.30;;;11.50;99.90;;;;;;5052214;28;20196;-75
2023/05/19 04:43:40;;;;;;;6.77;4.27;;;11.60;99.90;;;;;;5042869;28;20205;-74
2023/05/19 04:46:08;;;;;;;7.90;6.37;;;11.70;99.90;;;;;;5050802;28;20325;-76
2023/05/19 04:48:36;;;;;;;5.73;4.40;;;11.70;99.90;;;;;;5044764;28;20225;-75
2023/05/19 04:51:02;;;;;;;6.90;4.33;;;11.80;99.90;;;;;;5037293;28;20226;-75
2023/05/19 04:53:32;;;;;;;10.23;9.33;;;11.80;99.90;;;;;;5049450;28;20205;-77
2023/05/19 04:56:00;;;;;;;6.10;5.50;;;11.80;99.90;;;;;;5046462;28;20663;-77
2023/05/19 04:58:27;;;;;;;10.40;9.40;;;11.80;99.90;;;;;;5050385;28;20672;-78
2023/05/19 05:00:56;;;;;;;8.00;7.23;;;12.10;99.90;;;;;;5056112;28;20724;-77
2023/05/19 05:03:23;;;;;;;10.17;9.37;;;12.30;99.90;;;;;;5042673;28;20192;-77
2023/05/19 05:05:51;;;;;;;8.07;7.37;;;12.50;99.90;;;;;;5049851;28;20284;-79
2023/05/19 05:08:21;;;;;;;6.37;4.20;;;12.70;99.90;;;;;;5047725;28;20212;-77
2023/05/19 05:10:52;;;;;;;5.70;4.03;;;12.80;99.90;;;;;;5059220;28;20199;-77
2023/05/19 05:13:21;;;;;;;7.47;6.57;;;12.90;99.90;;;;;;5048905;28;20191;-77
2023/05/19 05:15:50;;;;;;;6.17;3.83;;;12.90;99.90;;;;;;5045984;28;20661;-78
2023/05/19 05:18:19;;;;;;;6.27;4.10;;;13.00;99.90;;;;;;5048685;28;20340;-79
2023/05/19 05:20:47;;;;;;;6.33;3.80;;;13.20;99.90;;;;;;5042672;28;20196;-78
2023/05/19 05:23:15;;;;;;;5.27;3.80;;;13.30;99.90;;;;;;5048640;28;20286;-78
2023/05/19 05:25:46;;;;;;;7.17;6.00;;;13.40;99.90;;;;;;5060709;28;20216;-80
2023/05/19 05:28:16;;;;;;;6.57;5.57;;;13.50;99.90;;;;;;5044012;28;20211;-80
2023/05/19 05:30:44;;;;;;;7.63;6.90;;;13.70;99.90;;;;;;5044209;28;20208;-79
2023/05/19 05:33:11;;;;;;;6.17;5.13;;;13.70;99.90;;;;;;5043461;28;20721;-80
2023/05/19 05:35:40;;;;;;;6.80;4.20;;;13.90;99.90;;;;;;5040947;28;20218;-79
2023/05/19 05:38:10;;;;;;;4.87;3.80;;;14.00;99.90;;;;;;5056448;28;20206;-81
2023/05/19 05:40:38;;;;;;;6.37;3.80;;;14.10;99.90;;;;;;5040163;28;20325;-78
2023/05/19 05:43:05;;;;;;;7.07;4.30;;;14.10;99.90;;;;;;5042844;28;20706;-78
2023/05/19 05:45:38;;;;;;;6.53;4.10;;;14.40;99.90;;;;;;5044701;28;20227;-78
2023/05/19 05:48:08;;;;;;;7.10;3.80;;;14.70;99.90;;;;;;5045272;28;20218;-78
2023/05/19 05:50:35;;;;;;;5.83;3.80;;;14.90;99.90;;;;;;5049457;28;20202;-78
2023/05/19 05:53:05;;;;;;;8.73;4.30;;;15.00;99.90;;;;;;5045139;28;20199;-78
2023/05/19 05:55:34;;;;;;;6.10;3.97;;;15.20;99.90;;;;;;5052032;28;20230;-77
2023/05/19 05:58:02;;;;;;;6.07;3.90;;;15.20;99.90;;;;;;5044414;28;20185;-78
2023/05/19 06:00:29;;;;;;;10.17;4.03;;;15.10;99.90;;;;;;5043527;28;20197;-78
2023/05/19 06:02:57;;;;;;;5.57;3.70;;;15.00;99.90;;;;;;5044726;28;20210;-78
2023/05/19 06:05:26;;;;;;;8.67;4.13;;;14.90;99.90;;;;;;5046938;28;20218;-79
2023/05/19 06:07:54;;;;;;;7.47;3.80;;;14.90;99.90;;;;;;5041500;28;20243;-78
2023/05/19 06:10:25;;;;;;;6.50;4.30;;;14.90;99.90;;;;;;5045565;28;20196;-79
2023/05/19 06:12:53;;;;;;;6.90;4.23;;;14.80;99.90;;;;;;5050255;28;20569;-78
2023/05/19 06:15:21;;;;;;;6.43;4.67;;;14.90;99.90;;;;;;5039711;28;20272;-78
2023/05/19 06:18:06;;;;;;;6.93;4.10;;;14.90;99.90;;;;;;5045362;28;20210;-78
2023/05/19 06:20:33;;;;;;;7.50;4.13;;;14.80;99.90;;;;;;5042287;28;20204;-77
2023/05/19 06:23:01;;;;;;;7.07;4.80;;;14.90;99.90;;;;;;5042875;28;20207;-78
2023/05/19 06:25:29;;;;;;;7.63;4.23;;;14.90;99.90;;;;;;5051614;28;20302;-78
2023/05/19 06:27:56;;;;;;;9.03;4.23;;;15.00;99.90;;;;;;5052506;28;20219;-78
2023/05/19 06:30:24;;;;;;;6.70;4.33;;;15.00;99.90;;;;;;5048241;28;20235;-78
2023/05/19 06:33:11;;;;;;;6.97;3.90;;;14.70;99.90;;;;;;5043287;28;20209;-79
2023/05/19 06:35:38;;;;;;;7.60;4.57;;;14.60;99.90;;;;;;5052147;28;20305;-79
2023/05/19 06:38:05;;;;;;;6.40;4.57;;;14.60;99.90;;;;;;5046331;28;20264;-78
2023/05/19 06:40:32;;;;;;;8.90;3.97;;;15.00;99.90;;;;;;5058145;28;20205;-79
2023/05/19 06:42:59;;;;;;;6.80;4.17;;;15.60;99.90;;;;;;5047611;28;20629;-79
2023/05/19 06:45:49;;;;;;;7.03;3.90;;;15.90;99.90;;;;;;5047570;28;20305;-79
2023/05/19 06:48:17;;;;;;;8.43;4.30;;;15.90;99.90;;;;;;5050205;28;20305;-78
2023/05/19 06:50:44;;;;;;;7.57;4.00;;;15.70;99.90;;;;;;5049937;28;20252;-79
2023/05/19 06:53:12;;;;;;;6.80;4.13;;;15.60;99.90;;;;;;5051191;28;20208;-81
2023/05/19 06:55:39;;;;;;;9.33;5.60;;;15.50;99.90;;;;;;5047129;28;20226;-80
2023/05/19 06:58:07;;;;;;;9.20;6.07;;;15.90;99.90;;;;;;5052907;28;20194;-80
2023/05/19 07:00:35;;;;;;;8.17;7.13;;;16.00;99.90;;;;;;5056488;28;20206;-80
2023/05/19 07:03:02;;;;;;;9.63;4.77;;;16.00;99.90;;;;;;5047064;28;20199;-79
2023/05/19 07:05:30;;;;;;;8.47;4.53;;;15.80;99.90;;;;;;5043785;28;20657;-78
2023/05/19 07:08:00;;;;;;;9.73;5.43;;;15.40;99.90;;;;;;5055383;28;20207;-79
2023/05/19 07:10:29;;;;;;;10.30;7.50;;;15.30;99.90;;;;;;5046908;28;20191;-78
2023/05/19 07:12:57;;;;;;;7.10;6.40;;;15.30;99.90;;;;;;5048795;28;20744;-78
2023/05/19 07:15:26;;;;;;;7.43;6.33;;;15.20;99.90;;;;;;5045174;28;20215;-78
2023/05/19 07:17:53;;;;;;;10.27;6.10;;;15.30;99.90;;;;;;5047930;28;20268;-78
2023/05/19 07:20:20;;;;;;;9.37;6.17;;;15.00;99.90;;;;;;5054447;28;20210;-80
2023/05/19 07:22:49;;;;;;;10.80;5.60;;;15.00;99.90;;;;;;5047609;28;20202;-80
2023/05/19 07:25:16;;;;;;;8.50;5.57;;;15.20;99.90;;;;;;5045276;28;20222;-79
2023/05/19 07:27:46;;;;;;;8.23;6.20;;;15.20;99.90;;;;;;5049769;28;20598;-78
2023/05/19 07:30:13;;;;;;;9.60;6.27;;;15.20;99.90;;;;;;5047131;28;20222;-80
2023/05/19 07:32:40;;;;;;;9.40;5.97;;;15.20;99.90;;;;;;5048556;28;20197;-75
2023/05/19 07:35:07;;;;;;;8.83;6.40;;;15.20;99.90;;;;;;5044056;28;20288;-76
2023/05/19 07:37:33;;;;;;;7.43;5.70;;;15.30;99.90;;;;;;5050432;28;20207;-76
2023/05/19 07:40:02;;;;;;;10.50;6.37;;;15.20;99.90;;;;;;5048694;28;20704;-76
2023/05/19 07:42:28;;;;;;;10.77;5.57;;;15.20;99.90;;;;;;5049983;28;20203;-76
2023/05/19 07:44:55;;;;;;;7.13;5.37;;;15.30;99.90;;;;;;5050683;28;20296;-77
2023/05/19 07:47:22;;;;;;;8.33;5.17;;;15.30;99.90;;;;;;5053475;28;20191;-76
2023/05/19 07:49:49;;;;;;;8.27;4.20;;;15.20;99.90;;;;;;5048320;28;20654;-76
2023/05/19 07:52:17;;;;;;;5.97;3.80;;;15.20;99.90;;;;;;5045868;28;20195;-76
2023/05/19 07:54:44;;;;;;;9.47;6.90;;;15.40;99.90;;;;;;5048710;28;20219;-76
2023/05/19 07:57:13;;;;;;;9.70;6.83;;;15.30;99.90;;;;;;5051131;28;20217;-77
2023/05/19 07:59:40;;;;;;;8.43;4.53;;;15.30;99.90;;;;;;5051113;28;20198;-78
2023/05/19 08:02:07;;;;;;;7.73;4.27;;;15.40;99.90;;;;;;5051058;28;20196;-77
2023/05/19 08:04:34;;;;;;;8.70;4.50;;;15.10;99.90;;;;;;5046480;28;20219;-80
2023/05/19 08:07:01;;;;;;;8.50;7.13;;;15.00;99.90;;;;;;5048664;28;20234;-76
2023/05/19 08:09:27;;;;;;;8.70;6.43;;;15.00;99.90;;;;;;5052314;28;20562;-77
2023/05/19 08:11:54;;;;;;;7.13;4.87;;;14.90;99.90;;;;;;5050307;28;20249;-76
2023/05/19 08:14:22;;;;;;;6.67;6.07;;;15.00;99.90;;;;;;5053723;28;20219;-76
2023/05/19 08:16:49;;;;;;;7.23;6.23;;;15.00;99.90;;;;;;5053612;28;20256;-76
2023/05/19 08:19:16;;;;;;;10.83;7.23;;;15.10;99.90;;;;;;5047783;28;20203;-75
2023/05/19 08:21:43;;;;;;;8.73;5.93;;;14.90;99.90;;;;;;5050110;28;20200;-76
2023/05/19 08:24:10;;;;;;;11.03;4.33;;;14.90;99.90;;;;;;5050009;28;20219;-76
2023/05/19 08:26:37;;;;;;;10.90;4.43;;;14.90;99.90;;;;;;5050916;28;20253;-77
2023/05/19 08:29:03;;;;;;;10.67;4.30;;;14.90;99.90;;;;;;5051334;28;20248;-76
2023/05/19 08:31:32;;;;;;;8.20;5.60;;;14.90;99.90;;;;;;5048804;28;20219;-75
2023/05/19 08:33:58;;;;;;;9.10;4.30;;;14.80;99.90;;;;;;5052287;28;20239;-75
2023/05/19 08:36:26;;;;;;;6.53;5.00;;;14.70;99.90;;;;;;5047291;28;20225;-76
2023/05/19 08:38:53;;;;;;;7.43;4.27;;;14.70;99.90;;;;;;5046680;28;20200;-76
2023/05/19 08:41:20;;;;;;;8.33;4.37;;;14.70;99.90;;;;;;5050790;28;20247;-75
2023/05/19 08:43:47;;;;;;;6.33;4.07;;;14.60;99.90;;;;;;5047246;28;20211;-76
2023/05/19 08:46:15;;;;;;;7.73;4.60;;;14.60;99.90;;;;;;5051820;28;20203;-76
2023/05/19 08:48:44;;;;;;;7.60;4.27;;;14.50;99.90;;;;;;5048968;28;20212;-76
2023/05/19 08:51:17;;;;;;;6.93;4.20;;;14.50;99.90;;;;;;5044750;28;20212;-76
2023/05/19 08:53:50;;;;;;;7.23;4.10;;;14.50;99.90;;;;;;5049959;28;20205;-76
2023/05/19 08:56:21;;;;;;;8.57;4.23;;;14.70;99.90;;;;;;5046194;28;20230;-75
2023/05/19 08:58:50;;;;;;;10.17;5.10;;;14.80;99.90;;;;;;5048027;28;20508;-76
2023/05/19 09:01:19;;;;;;;5.47;3.97;;;14.70;99.90;;;;;;5041612;28;20197;-76
2023/05/19 09:03:48;;;;;;;6.60;4.20;;;14.70;99.90;;;;;;5046007;28;20202;-76
2023/05/19 09:06:15;;;;;;;7.63;4.77;;;14.60;99.90;;;;;;5047246;28;20202;-75
2023/05/19 09:08:43;;;;;;;7.93;4.47;;;14.50;99.90;;;;;;5048582;28;20241;-75
2023/05/19 09:11:10;;;;;;;6.83;4.57;;;14.60;99.90;;;;;;5052089;28;20216;-76
2023/05/19 09:13:37;;;;;;;8.70;4.17;;;14.60;99.90;;;;;;5047844;28;20227;-76
2023/05/19 09:16:05;;;;;;;6.40;4.40;;;14.50;99.90;;;;;;5046956;28;20223;-76
2023/05/19 09:18:32;;;;;;;9.17;4.73;;;14.70;99.90;;;;;;5052917;28;20200;-76
2023/05/19 09:21:01;;;;;;;9.60;4.23;;;14.80;99.90;;;;;;5055096;28;20202;-77
2023/05/19 09:23:29;;;;;;;6.13;4.33;;;14.80;99.90;;;;;;5051236;28;20195;-77
2023/05/19 09:25:56;;;;;;;6.77;4.50;;;14.80;99.90;;;;;;5048692;28;20310;-76
2023/05/19 09:28:24;;;;;;;7.90;4.20;;;14.60;99.90;;;;;;5050725;28;20213;-76
2023/05/19 09:31:02;;;;;;;5.23;3.77;;;14.70;99.90;;;;;;5050454;28;20203;-76
2023/05/19 09:33:29;;;;;;;5.70;3.87;;;14.70;99.90;;;;;;5045778;28;20199;-76
2023/05/19 09:35:57;;;;;;;6.47;4.13;;;14.70;99.90;;;;;;5052087;28;20229;-77
2023/05/19 09:38:25;;;;;;;5.70;4.30;;;14.60;99.90;;;;;;5052754;28;20592;-76
2023/05/19 09:40:53;;;;;;;8.27;4.60;;;14.30;99.90;;;;;;5048467;28;20205;-76
2023/05/19 09:43:21;;;;;;;8.00;4.23;;;14.10;99.90;;;;;;5045867;28;20226;-76
2023/05/19 09:45:48;;;;;;;7.13;4.43;;;14.00;99.90;;;;;;5046717;28;20221;-76
2023/05/19 09:48:15;;;;;;;9.67;4.50;;;13.90;99.90;;;;;;5047931;28;20746;-76
2023/05/19 09:50:45;;;;;;;8.30;4.47;;;13.90;99.90;;;;;;5050181;28;20205;-76
2023/05/19 09:53:13;;;;;;;4.83;3.83;;;13.90;99.90;;;;;;5050401;28;20208;-75
2023/05/19 09:55:42;;;;;;;5.97;3.80;;;14.10;99.90;;;;;;5048431;28;20303;-76
2023/05/19 09:58:09;;;;;;;5.50;3.93;;;14.20;99.90;;;;;;5046001;28;20673;-76
2023/05/19 10:00:37;;;;;;;8.17;3.70;;;14.20;99.90;;;;;;5052967;28;20661;-76
2023/05/19 10:03:05;;;;;;;7.17;4.10;;;14.30;99.90;;;;;;5054755;28;20278;-77
2023/05/19 10:05:33;;;;;;;6.80;4.50;;;14.30;99.90;;;;;;5055736;28;20339;-76
2023/05/19 10:08:00;;;;;;;5.43;4.03;;;14.30;99.90;;;;;;5050985;28;20199;-75
2023/05/19 10:10:28;;;;;;;8.20;4.07;;;14.30;99.90;;;;;;5052686;28;20201;-75
2023/05/19 10:12:58;;;;;;;8.37;4.37;;;14.30;99.90;;;;;;5051553;28;20198;-75
2023/05/19 10:15:26;;;;;;;5.80;4.27;;;14.40;99.90;;;;;;5047269;28;20275;-76
2023/05/19 10:17:53;;;;;;;6.23;4.27;;;14.40;99.90;;;;;;5055148;28;20236;-76
2023/05/19 10:20:20;;;;;;;6.27;4.10;;;14.50;99.90;;;;;;5055532;28;20203;-76
2023/05/19 10:22:47;;;;;;;6.37;4.00;;;14.40;99.90;;;;;;5055225;28;20207;-76
2023/05/19 10:25:17;;;;;;;7.73;3.97;;;14.30;99.90;;;;;;5053960;28;20273;-76
2023/05/19 10:27:49;;;;;;;5.70;3.80;;;14.20;99.90;;;;;;5050458;28;20627;-76
2023/05/19 10:30:21;;;;;;;8.00;4.27;;;14.20;99.90;;;;;;5052996;28;20744;-75
2023/05/19 10:32:48;;;;;;;6.67;3.93;;;14.20;99.90;;;;;;5048715;28;20561;-76
2023/05/19 10:35:47;;;;;;;8.27;3.73;;;14.20;99.90;;;;;;5054548;28;20222;-76
2023/05/19 10:38:23;;;;;;;7.67;4.00;;;14.60;99.90;;;;;;5053512;28;20746;-75
2023/05/19 10:40:57;;;;;;;7.37;4.20;;;14.70;99.90;;;;;;5050411;28;20643;-76
2023/05/19 10:43:34;;;;;;;6.97;4.17;;;14.90;99.90;;;;;;5049967;28;20203;-76
2023/05/19 10:46:04;;;;;;;6.63;3.93;;;14.90;99.90;;;;;;5048702;28;20234;-75
2023/05/19 10:48:33;;;;;;;5.73;3.90;;;14.90;99.90;;;;;;5048993;28;20192;-76
2023/05/19 10:51:00;;;;;;;6.73;4.10;;;14.80;99.90;;;;;;5048441;28;20206;-76
2023/05/19 10:53:31;;;;;;;9.03;3.80;;;14.70;99.90;;;;;;5050951;28;20248;-75
2023/05/19 10:56:01;;;;;;;6.57;3.77;;;14.70;99.90;;;;;;5050731;28;20233;-77
2023/05/19 10:58:38;;;;;;;7.47;3.80;;;14.90;99.90;;;;;;5052805;28;20255;-76
2023/05/19 11:01:13;;;;;;;9.47;4.07;;;14.90;99.90;;;;;;5055422;28;20217;-76
2023/05/19 11:03:45;;;;;;;10.87;4.50;;;14.90;99.90;;;;;;5047997;28;20199;-76
2023/05/19 11:06:20;;;;;;;7.93;4.30;;;14.70;99.90;;;;;;5053492;28;20250;-79
2023/05/19 11:08:52;;;;;;;4.57;3.90;;;14.70;99.90;;;;;;5053757;28;20223;-80
2023/05/19 11:11:18;;;;;;;8.43;4.17;;;14.70;99.90;;;;;;5051338;28;20203;-77
2023/05/19 11:13:48;;;;;;;4.80;3.87;;;14.90;99.90;;;;;;5054532;28;20223;-79
2023/05/19 11:16:19;;;;;;;5.30;3.60;;;14.90;99.90;;;;;;5046161;28;20605;-79
2023/05/19 11:18:49;;;;;;;7.03;3.90;;;14.90;99.90;;;;;;5043700;28;20669;-78
2023/05/19 11:21:16;;;;;;;9.60;4.13;;;14.90;99.90;;;;;;5051628;28;20235;-78
2023/05/19 11:23:43;;;;;;;7.47;3.93;;;15.00;99.90;;;;;;5052354;28;20213;-79
2023/05/19 11:26:09;;;;;;;6.37;3.50;;;15.20;99.90;;;;;;5045966;28;20348;-78
2023/05/19 11:28:37;;;;;;;9.20;4.20;;;15.40;99.90;;;;;;5051406;28;20257;-81
2023/05/19 11:31:06;;;;;;;6.60;4.23;;;15.40;99.90;;;;;;5048908;28;20285;-78
2023/05/19 11:33:35;;;;;;;7.03;3.60;;;15.20;99.90;;;;;;5056290;28;20195;-79
2023/05/19 11:36:04;;;;;;;6.90;4.10;;;15.10;99.90;;;;;;5048057;28;20237;-77
2023/05/19 11:38:32;;;;;;;6.40;4.27;;;15.10;99.90;;;;;;5044269;28;20205;-78
2023/05/19 11:41:00;;;;;;;5.63;3.87;;;15.10;99.90;;;;;;5048022;28;20256;-78
2023/05/19 11:43:27;;;;;;;6.07;4.30;;;15.10;99.90;;;;;;5045977;28;20265;-79
2023/05/19 11:45:54;;;;;;;6.47;3.93;;;15.00;99.90;;;;;;5042564;28;20250;-80
2023/05/19 11:48:21;;;;;;;5.97;3.80;;;14.90;99.90;;;;;;5051681;28;20816;-79
2023/05/19 11:50:50;;;;;;;6.77;4.00;;;14.90;99.90;;;;;;5050872;28;20299;-79
2023/05/19 11:53:18;;;;;;;7.27;4.60;;;14.80;99.90;;;;;;5050955;28;20213;-80
2023/05/19 11:55:46;;;;;;;7.30;4.37;;;14.80;99.90;;;;;;5048450;28;20220;-80
2023/05/19 11:58:13;;;;;;;6.60;4.07;;;14.60;99.90;;;;;;5051676;28;20198;-80
2023/05/19 12:00:41;;;;;;;5.73;3.57;;;14.70;99.90;;;;;;5055085;28;20194;-80
2023/05/19 12:03:08;;;;;;;5.27;3.90;;;14.90;99.90;;;;;;5055137;28;20195;-79
2023/05/19 12:05:38;;;;;;;5.23;3.80;;;14.90;99.90;;;;;;5051980;28;20716;-79
2023/05/19 12:08:06;;;;;;;7.67;4.20;;;14.90;99.90;;;;;;5054885;28;20200;-80
2023/05/19 12:10:34;;;;;;;4.33;3.50;;;15.00;99.90;;;;;;5049924;28;20700;-80
2023/05/19 12:13:02;;;;;;;7.97;3.73;;;15.00;99.90;;;;;;5055751;28;20214;-79
2023/05/19 12:15:29;;;;;;;6.20;3.70;;;15.00;99.90;;;;;;5060721;28;20719;-80
2023/05/19 12:17:57;;;;;;;5.43;3.80;;;15.20;99.90;;;;;;5048300;28;20238;-79
2023/05/19 12:20:25;;;;;;;5.23;4.00;;;15.10;99.90;;;;;;5051713;28;20198;-79
2023/05/19 12:22:52;;;;;;;5.20;3.90;;;15.30;99.90;;;;;;5045333;28;20587;-79
2023/05/19 12:25:21;;;;;;;5.07;3.90;;;15.40;99.90;;;;;;5045793;28;20275;-79
2023/05/19 12:27:48;;;;;;;9.07;3.67;;;15.40;99.90;;;;;;5054501;28;20679;-79
2023/05/19 12:30:16;;;;;;;5.97;3.70;;;15.40;99.90;;;;;;5045675;28;20209;-79
2023/05/19 12:32:43;;;;;;;5.90;4.23;;;15.30;99.90;;;;;;5037097;28;20192;-79
2023/05/19 12:35:10;;;;;;;8.13;4.50;;;15.30;99.90;;;;;;5050136;28;20219;-80
2023/05/19 12:37:41;;;;;;;5.07;4.23;;;15.10;99.90;;;;;;5042971;28;20225;-79
2023/05/19 12:40:09;;;;;;;6.57;3.80;;;15.20;99.90;;;;;;5047692;28;20741;-78
2023/05/19 12:42:37;;;;;;;5.00;3.80;;;15.10;99.90;;;;;;5045410;28;20209;-80
2023/05/19 12:45:05;;;;;;;7.03;4.00;;;15.20;99.90;;;;;;5046930;28;20268;-79
2023/05/19 12:47:33;;;;;;;5.50;4.00;;;15.20;99.90;;;;;;5041509;28;20202;-79
2023/05/19 12:50:05;;;;;;;5.83;4.07;;;15.20;99.90;;;;;;5049855;28;20237;-80
2023/05/19 12:52:34;;;;;;;6.13;4.37;;;15.30;99.90;;;;;;5045754;28;20203;-79
2023/05/19 12:55:03;;;;;;;4.90;4.10;;;15.30;99.90;;;;;;5049392;28;20223;-79